Time;durP1;ratioP1;P1;durP2;ratioP2;P2;SDS_P1;SDS_P2;PMS_P1;PMS_P2;Temp;Humidity;BMP_temperature;BMP_pressure;BME280_temperature;BME280_humidity;BME280_pressure;Samples;Min_cycle;Max_cycle;Signal;HPM_P1;HPM_P2
2024/02/23 00:01:21;;;;;;;1.80;0.77;;;9.80;78.30;;;;;;5073345;28;20236;-68
2024/02/23 00:03:48;;;;;;;1.70;0.65;;;9.80;79.20;;;;;;5073598;28;20191;-69
2024/02/23 00:06:16;;;;;;;1.70;0.60;;;9.70;78.70;;;;;;5073680;28;20281;-69
2024/02/23 00:08:42;;;;;;;1.70;0.50;;;9.70;78.30;;;;;;5073202;28;20226;-69
2024/02/23 00:11:09;;;;;;;1.80;0.90;;;9.70;76.70;;;;;;5073567;28;20615;-69
2024/02/23 00:13:36;;;;;;;1.85;0.70;;;9.60;76.90;;;;;;5073584;28;20285;-69
2024/02/23 00:16:04;;;;;;;2.00;1.00;;;9.60;77.00;;;;;;5073002;28;20208;-69
2024/02/23 00:18:32;;;;;;;2.10;1.25;;;9.60;75.20;;;;;;5073120;28;20194;-67
2024/02/23 00:20:59;;;;;;;1.92;0.73;;;9.60;75.10;;;;;;5073487;28;20214;-68
2024/02/23 00:23:28;;;;;;;2.00;1.23;;;9.50;75.70;;;;;;5073406;28;20285;-68
2024/02/23 00:25:55;;;;;;;1.77;0.80;;;9.40;75.60;;;;;;5074841;28;20552;-69
2024/02/23 00:28:22;;;;;;;1.70;0.68;;;9.40;75.20;;;;;;5077519;28;20221;-69
2024/02/23 00:30:49;;;;;;;2.08;1.08;;;9.40;75.60;;;;;;5077723;28;20263;-69
2024/02/23 00:33:17;;;;;;;1.85;0.80;;;9.30;75.70;;;;;;5077226;28;20201;-69
2024/02/23 00:35:45;;;;;;;1.80;0.80;;;9.30;75.90;;;;;;5077590;28;20201;-69
2024/02/23 00:38:12;;;;;;;1.90;0.73;;;9.20;75.90;;;;;;5077087;28;20196;-69
2024/02/23 00:40:39;;;;;;;1.90;0.70;;;9.20;75.50;;;;;;5077310;28;20387;-69
2024/02/23 00:43:07;;;;;;;1.90;0.70;;;9.20;75.50;;;;;;5077072;28;20258;-68
2024/02/23 00:45:34;;;;;;;1.80;0.75;;;9.20;75.60;;;;;;5077435;28;20285;-69
2024/02/23 00:48:01;;;;;;;1.70;0.60;;;9.20;76.30;;;;;;5077322;28;20593;-69
2024/02/23 00:50:28;;;;;;;1.80;0.80;;;9.20;76.50;;;;;;5076902;28;20236;-69
2024/02/23 00:52:57;;;;;;;1.70;0.60;;;9.10;77.50;;;;;;5077412;28;20536;-69
2024/02/23 00:55:25;;;;;;;1.80;0.70;;;9.10;77.80;;;;;;5077272;28;20240;-69
2024/02/23 00:57:52;;;;;;;1.70;0.70;;;9.10;76.80;;;;;;5076996;28;20205;-68
2024/02/23 01:00:19;;;;;;;1.70;0.60;;;9.20;77.00;;;;;;5076913;28;20214;-69
2024/02/23 01:02:46;;;;;;;1.77;0.70;;;9.20;77.40;;;;;;5077032;28;20247;-69
2024/02/23 01:05:13;;;;;;;1.75;0.70;;;9.20;76.40;;;;;;5076945;28;20277;-69
2024/02/23 01:07:40;;;;;;;1.70;0.60;;;9.20;76.80;;;;;;5075334;28;20583;-68
2024/02/23 01:10:09;;;;;;;1.90;0.60;;;9.20;75.80;;;;;;5076459;28;20201;-68
2024/02/23 01:12:36;;;;;;;1.85;0.90;;;9.20;76.00;;;;;;5076513;28;20186;-68
2024/02/23 01:15:04;;;;;;;2.25;1.70;;;9.20;75.80;;;;;;5076794;28;20596;-68
2024/02/23 01:17:31;;;;;;;2.90;0.90;;;9.20;75.20;;;;;;5076320;28;20182;-69
2024/02/23 01:19:58;;;;;;;1.70;0.68;;;9.20;75.30;;;;;;5076534;28;20190;-68
2024/02/23 01:22:25;;;;;;;2.00;0.70;;;9.10;74.40;;;;;;5076738;28;20201;-68
2024/02/23 01:24:53;;;;;;;1.70;0.70;;;9.10;74.80;;;;;;5076211;28;20659;-68
2024/02/23 01:27:21;;;;;;;2.05;0.80;;;9.10;73.60;;;;;;5076595;28;20527;-68
2024/02/23 01:29:49;;;;;;;1.70;0.60;;;9.00;73.90;;;;;;5076479;28;20183;-68
2024/02/23 01:32:16;;;;;;;1.85;0.93;;;9.00;73.70;;;;;;5076143;28;20580;-69
2024/02/23 01:34:43;;;;;;;1.98;1.00;;;9.00;74.60;;;;;;5076050;28;20577;-69
2024/02/23 01:37:11;;;;;;;6.50;1.00;;;9.00;74.10;;;;;;5075651;28;20307;-69
2024/02/23 01:39:38;;;;;;;1.70;0.70;;;9.00;73.60;;;;;;5075901;28;20194;-69
2024/02/23 01:42:05;;;;;;;1.70;0.60;;;9.10;72.70;;;;;;5075834;28;20230;-69
2024/02/23 01:44:34;;;;;;;2.13;0.60;;;9.10;72.50;;;;;;5075814;28;20277;-69
2024/02/23 01:47:01;;;;;;;1.70;0.60;;;9.10;72.20;;;;;;5075772;28;20281;-69
2024/02/23 01:49:32;;;;;;;1.65;0.60;;;9.10;71.90;;;;;;5075748;28;20198;-69
2024/02/23 01:51:59;;;;;;;2.08;0.70;;;9.10;71.10;;;;;;5075980;28;20189;-69
2024/02/23 01:54:28;;;;;;;1.90;0.80;;;9.10;70.80;;;;;;5075585;28;20202;-69
2024/02/23 01:56:56;;;;;;;1.80;0.90;;;9.10;69.70;;;;;;5075887;28;20190;-69
2024/02/23 01:59:25;;;;;;;1.95;1.05;;;9.10;69.20;;;;;;5075858;28;20214;-69
2024/02/23 02:01:56;;;;;;;2.35;1.50;;;9.10;68.00;;;;;;5074555;28;20213;-69
2024/02/23 02:04:23;;;;;;;2.30;1.25;;;9.10;68.00;;;;;;5074775;28;20625;-68
2024/02/23 02:06:50;;;;;;;1.70;0.60;;;9.10;67.50;;;;;;5075445;28;20205;-69
2024/02/23 02:09:17;;;;;;;1.90;1.00;;;9.10;67.60;;;;;;5075560;28;20206;-69
2024/02/23 02:11:48;;;;;;;1.70;0.60;;;9.10;67.30;;;;;;5075741;28;20621;-69
2024/02/23 02:14:19;;;;;;;1.80;0.80;;;9.10;67.30;;;;;;5075250;28;20189;-69
2024/02/23 02:16:50;;;;;;;1.80;0.70;;;9.10;65.80;;;;;;5075258;28;20186;-69
2024/02/23 02:19:18;;;;;;;1.80;0.50;;;9.10;65.60;;;;;;5075256;28;20651;-69
2024/02/23 02:21:45;;;;;;;1.70;0.60;;;9.10;64.50;;;;;;5075379;28;20301;-69
2024/02/23 02:24:12;;;;;;;1.90;0.70;;;9.00;64.20;;;;;;5075056;28;20282;-69
2024/02/23 02:26:39;;;;;;;1.70;0.60;;;9.00;64.20;;;;;;5075381;28;20186;-69
2024/02/23 02:29:07;;;;;;;1.90;0.70;;;9.00;61.90;;;;;;5075034;28;20281;-68
2024/02/23 02:31:37;;;;;;;1.75;0.63;;;9.00;62.20;;;;;;5074108;28;20270;-69
2024/02/23 02:34:04;;;;;;;1.70;0.70;;;9.00;61.40;;;;;;5074972;28;20240;-69
2024/02/23 02:36:33;;;;;;;1.70;0.60;;;9.00;61.80;;;;;;5075145;28;20193;-69
2024/02/23 02:39:00;;;;;;;1.90;0.77;;;9.00;62.50;;;;;;5075103;28;20202;-69
2024/02/23 02:41:30;;;;;;;2.25;0.70;;;9.00;63.50;;;;;;5074738;28;20221;-69
2024/02/23 02:43:57;;;;;;;1.90;0.80;;;9.00;63.40;;;;;;5074802;28;20178;-67
2024/02/23 02:46:24;;;;;;;2.55;0.70;;;9.10;61.30;;;;;;5073766;28;20649;-68
2024/02/23 02:48:51;;;;;;;1.70;0.63;;;9.10;61.20;;;;;;5052897;28;20233;-68
2024/02/23 02:51:19;;;;;;;1.80;0.60;;;9.10;61.90;;;;;;5054480;28;20703;-68
2024/02/23 02:53:47;;;;;;;1.90;0.70;;;9.10;61.20;;;;;;5074162;28;20191;-70
2024/02/23 02:56:14;;;;;;;1.80;0.70;;;9.10;60.90;;;;;;5074867;28;20228;-69
2024/02/23 02:58:41;;;;;;;1.70;0.63;;;9.10;60.90;;;;;;5073732;28;20230;-68
2024/02/23 03:01:08;;;;;;;1.70;0.50;;;9.10;61.20;;;;;;5073898;28;20210;-68
2024/02/23 03:03:36;;;;;;;1.70;0.60;;;9.20;61.50;;;;;;5073972;28;20217;-68
2024/02/23 03:06:03;;;;;;;1.80;0.80;;;9.20;61.10;;;;;;5074504;28;20202;-68
2024/02/23 03:08:30;;;;;;;1.70;0.80;;;9.20;60.60;;;;;;5074061;28;20281;-67
2024/02/23 03:10:59;;;;;;;2.10;0.80;;;9.20;61.00;;;;;;5074141;28;20289;-68
2024/02/23 03:13:26;;;;;;;1.63;0.50;;;9.20;61.50;;;;;;5074014;28;20262;-68
2024/02/23 03:15:53;;;;;;;1.80;0.80;;;9.20;61.00;;;;;;5074476;28;20273;-68
2024/02/23 03:18:21;;;;;;;1.98;0.75;;;9.20;61.10;;;;;;5074066;28;20201;-67
2024/02/23 03:20:47;;;;;;;1.70;0.65;;;9.30;61.00;;;;;;5074390;28;20226;-68
2024/02/23 03:23:15;;;;;;;2.00;1.35;;;9.30;61.60;;;;;;5074227;28;20225;-68
2024/02/23 03:25:42;;;;;;;2.40;0.70;;;9.30;61.80;;;;;;5074159;28;20244;-68
2024/02/23 03:28:10;;;;;;;1.80;0.60;;;9.20;61.30;;;;;;5072273;28;20193;-69
2024/02/23 03:30:38;;;;;;;1.60;0.52;;;9.30;61.10;;;;;;5073330;28;20614;-68
2024/02/23 03:33:05;;;;;;;2.42;0.80;;;9.20;60.90;;;;;;5073996;28;20190;-68
2024/02/23 03:35:32;;;;;;;2.00;0.70;;;9.30;61.50;;;;;;5073697;28;20240;-68
2024/02/23 03:37:59;;;;;;;2.00;0.60;;;9.30;61.50;;;;;;5073329;28;20185;-68
2024/02/23 03:40:26;;;;;;;1.70;0.60;;;9.30;61.10;;;;;;5073655;28;20205;-69
2024/02/23 03:42:53;;;;;;;1.70;0.60;;;9.30;61.50;;;;;;5073535;28;20233;-68
2024/02/23 03:45:21;;;;;;;1.75;0.70;;;9.30;62.00;;;;;;5073781;28;20194;-68
2024/02/23 03:47:48;;;;;;;1.70;0.70;;;9.30;62.20;;;;;;5073958;28;20520;-68
2024/02/23 03:50:16;;;;;;;1.70;0.70;;;9.30;63.00;;;;;;5073794;28;20217;-68
2024/02/23 03:52:43;;;;;;;3.20;1.02;;;9.30;63.50;;;;;;5072512;28;20609;-68
2024/02/23 03:55:10;;;;;;;1.70;0.60;;;9.30;63.90;;;;;;5073700;28;20222;-68
2024/02/23 03:57:37;;;;;;;1.73;0.70;;;9.40;63.10;;;;;;5073692;28;20186;-68
2024/02/23 04:00:06;;;;;;;1.70;0.65;;;9.40;63.30;;;;;;5072877;28;20611;-68
2024/02/23 04:02:34;;;;;;;1.70;0.70;;;9.40;63.30;;;;;;5073238;28;20217;-68
2024/02/23 04:05:01;;;;;;;1.80;0.70;;;9.40;63.80;;;;;;5073653;28;20190;-68
2024/02/23 04:07:28;;;;;;;1.90;1.13;;;9.30;64.30;;;;;;5073595;28;20244;-68
2024/02/23 04:09:55;;;;;;;1.80;0.70;;;9.30;64.10;;;;;;5073583;28;20285;-68
2024/02/23 04:12:22;;;;;;;1.75;0.70;;;9.30;64.30;;;;;;5073382;28;20648;-69
2024/02/23 04:14:50;;;;;;;2.75;0.73;;;9.20;64.30;;;;;;5073581;28;20194;-69
2024/02/23 04:17:17;;;;;;;1.80;0.70;;;9.20;65.10;;;;;;5073577;28;20191;-69
2024/02/23 04:19:46;;;;;;;2.00;1.27;;;9.20;65.50;;;;;;5073191;28;20229;-69
2024/02/23 04:22:13;;;;;;;1.80;0.70;;;9.20;66.30;;;;;;5072765;28;20298;-69
2024/02/23 04:24:41;;;;;;;1.60;0.65;;;9.20;66.60;;;;;;5073240;28;20272;-69
2024/02/23 04:27:09;;;;;;;2.10;0.73;;;9.20;65.00;;;;;;5073449;28;20278;-69
2024/02/23 04:29:39;;;;;;;1.70;0.70;;;9.20;64.50;;;;;;5073010;28;20232;-69
2024/02/23 04:32:07;;;;;;;2.00;0.73;;;9.10;63.90;;;;;;5073606;28;20229;-69
2024/02/23 04:34:35;;;;;;;1.65;0.60;;;9.10;64.10;;;;;;5073384;28;20232;-68
2024/02/23 04:37:03;;;;;;;1.80;0.80;;;9.00;63.00;;;;;;5072651;28;20243;-68
2024/02/23 04:39:30;;;;;;;1.90;0.90;;;8.90;63.70;;;;;;5073122;28;20190;-68
2024/02/23 04:41:58;;;;;;;1.80;0.60;;;8.90;63.80;;;;;;5073262;28;20334;-67
2024/02/23 04:44:25;;;;;;;1.90;0.88;;;8.90;63.50;;;;;;5073370;28;20280;-68
2024/02/23 04:46:51;;;;;;;1.90;0.70;;;8.80;62.80;;;;;;5072976;28;20190;-68
2024/02/23 04:49:19;;;;;;;3.05;0.80;;;8.70;63.60;;;;;;5073012;28;20229;-68
2024/02/23 04:51:46;;;;;;;2.50;0.60;;;8.70;63.90;;;;;;5073314;28;20194;-67
2024/02/23 04:54:14;;;;;;;1.70;0.60;;;8.60;64.20;;;;;;5073263;28;20611;-67
2024/02/23 04:56:41;;;;;;;1.90;0.80;;;8.50;63.90;;;;;;5073190;28;20248;-68
2024/02/23 04:59:08;;;;;;;2.70;1.00;;;8.50;64.20;;;;;;5073223;28;20194;-68
2024/02/23 05:01:37;;;;;;;2.90;1.05;;;8.40;65.10;;;;;;5072774;28;20732;-69
2024/02/23 05:04:05;;;;;;;1.67;0.60;;;8.40;65.60;;;;;;5073074;28;20284;-69
2024/02/23 05:06:32;;;;;;;3.17;0.80;;;8.40;65.20;;;;;;5073100;28;20229;-69
2024/02/23 05:08:59;;;;;;;1.90;0.88;;;8.40;63.90;;;;;;5073242;28;20186;-69
2024/02/23 05:11:29;;;;;;;2.10;0.70;;;8.30;63.50;;;;;;5073241;28;20190;-69
2024/02/23 05:13:56;;;;;;;2.85;0.98;;;8.30;63.50;;;;;;5076856;28;20182;-69
2024/02/23 05:16:23;;;;;;;2.60;0.88;;;8.20;63.00;;;;;;5076745;28;20233;-68
2024/02/23 05:18:50;;;;;;;2.35;0.85;;;8.20;62.50;;;;;;5076388;28;20280;-68
2024/02/23 05:21:17;;;;;;;1.98;0.80;;;8.10;63.30;;;;;;5075503;28;20197;-68
2024/02/23 05:23:46;;;;;;;1.83;0.75;;;8.00;64.30;;;;;;5076402;28;20735;-68
2024/02/23 05:26:13;;;;;;;1.90;0.90;;;8.00;64.50;;;;;;5076292;28;20255;-68
2024/02/23 05:28:42;;;;;;;3.00;1.40;;;7.90;65.40;;;;;;5074954;28;20592;-68
2024/02/23 05:31:11;;;;;;;2.95;0.90;;;7.90;66.40;;;;;;5075662;28;20178;-68
2024/02/23 05:33:38;;;;;;;1.88;0.75;;;7.90;66.70;;;;;;5076431;28;20604;-68
2024/02/23 05:36:06;;;;;;;2.00;0.80;;;7.90;66.40;;;;;;5076434;28;20194;-68
2024/02/23 05:38:33;;;;;;;2.15;0.70;;;7.90;66.40;;;;;;5076378;28;20641;-68
2024/02/23 05:41:00;;;;;;;2.05;0.80;;;7.90;66.40;;;;;;5076003;28;20186;-68
2024/02/23 05:43:27;;;;;;;2.00;0.90;;;7.90;66.40;;;;;;5075795;28;20233;-68
2024/02/23 05:45:58;;;;;;;2.45;0.90;;;8.00;66.00;;;;;;5075276;28;20278;-68
2024/02/23 05:48:25;;;;;;;2.55;1.02;;;8.00;65.50;;;;;;5064689;28;20190;-68
2024/02/23 05:50:52;;;;;;;3.00;0.70;;;8.00;64.70;;;;;;5072459;28;20309;-68
2024/02/23 05:53:19;;;;;;;1.80;0.75;;;7.90;64.80;;;;;;5074729;28;20209;-68
2024/02/23 05:55:46;;;;;;;4.50;2.25;;;7.90;65.00;;;;;;5074857;28;20273;-68
2024/02/23 05:58:16;;;;;;;2.53;0.80;;;8.00;64.10;;;;;;5075393;28;20186;-68
2024/02/23 06:00:43;;;;;;;1.80;0.70;;;8.00;63.60;;;;;;5075391;28;20244;-68
2024/02/23 06:03:12;;;;;;;1.92;0.75;;;7.90;63.70;;;;;;5075096;28;20234;-68
2024/02/23 06:05:39;;;;;;;3.00;1.00;;;7.90;64.10;;;;;;5075138;28;20191;-68
2024/02/23 06:08:07;;;;;;;2.35;0.90;;;7.90;63.90;;;;;;5075514;28;20224;-68
2024/02/23 06:10:35;;;;;;;1.92;0.80;;;7.80;63.10;;;;;;5075512;28;20213;-68
2024/02/23 06:13:01;;;;;;;2.50;0.82;;;7.80;62.60;;;;;;5075330;28;20201;-68
2024/02/23 06:15:28;;;;;;;2.72;0.90;;;7.80;63.20;;;;;;5075110;28;20228;-68
2024/02/23 06:17:55;;;;;;;3.95;0.80;;;7.80;63.50;;;;;;5075144;28;20291;-68
2024/02/23 06:20:24;;;;;;;2.53;0.80;;;7.80;63.90;;;;;;5075171;28;20214;-68
2024/02/23 06:22:51;;;;;;;2.70;1.15;;;7.80;64.00;;;;;;5074596;28;20619;-68
2024/02/23 06:25:18;;;;;;;2.75;1.10;;;7.80;63.90;;;;;;5074544;28;20282;-68
2024/02/23 06:27:46;;;;;;;1.90;0.80;;;7.80;63.20;;;;;;5074823;28;20577;-68
2024/02/23 06:30:13;;;;;;;2.13;0.80;;;7.80;63.50;;;;;;5074453;28;20202;-68
2024/02/23 06:32:40;;;;;;;3.42;0.88;;;7.80;63.60;;;;;;5075157;28;20225;-68
2024/02/23 06:35:17;;;;;;;2.55;0.90;;;7.80;63.90;;;;;;5073045;28;20186;-68
2024/02/23 06:37:46;;;;;;;2.10;0.80;;;7.80;63.70;;;;;;5060975;28;20251;-68
2024/02/23 06:40:13;;;;;;;4.75;1.48;;;7.70;64.60;;;;;;5071314;28;20190;-68
2024/02/23 06:42:40;;;;;;;2.83;1.23;;;7.80;64.80;;;;;;5073430;28;20293;-68
2024/02/23 06:45:08;;;;;;;2.33;0.90;;;7.70;65.00;;;;;;5072744;28;20186;-68
2024/02/23 06:47:35;;;;;;;2.85;0.82;;;7.70;65.00;;;;;;5070782;28;20581;-68
2024/02/23 06:50:03;;;;;;;2.30;1.10;;;7.70;65.20;;;;;;5074153;28;20617;-68
2024/02/23 06:52:30;;;;;;;2.92;1.27;;;7.70;65.40;;;;;;5076902;28;20193;-68
2024/02/23 06:54:58;;;;;;;1.85;0.70;;;7.70;66.00;;;;;;5089076;28;20190;-68
2024/02/23 06:57:26;;;;;;;3.28;0.98;;;7.80;66.00;;;;;;5073630;28;20277;-68
2024/02/23 06:59:53;;;;;;;2.83;0.98;;;7.80;66.10;;;;;;5073583;28;20282;-68
2024/02/23 07:02:20;;;;;;;2.00;1.13;;;7.80;66.40;;;;;;5072879;28;20656;-68
2024/02/23 07:04:47;;;;;;;2.80;0.80;;;7.80;66.40;;;;;;5070461;28;20344;-68
2024/02/23 07:07:14;;;;;;;1.73;0.60;;;7.80;66.20;;;;;;5070977;28;20269;-68
2024/02/23 07:09:41;;;;;;;2.00;0.80;;;7.90;66.10;;;;;;5073206;28;20192;-68
2024/02/23 07:12:11;;;;;;;2.08;0.88;;;7.90;66.30;;;;;;5073669;28;20285;-68
2024/02/23 07:14:38;;;;;;;2.55;0.90;;;7.90;65.50;;;;;;5074325;28;20550;-68
2024/02/23 07:17:05;;;;;;;3.85;0.73;;;7.90;65.70;;;;;;5073682;28;20236;-68
2024/02/23 07:19:32;;;;;;;2.92;0.75;;;7.90;66.00;;;;;;5074148;28;20281;-68
2024/02/23 07:21:59;;;;;;;2.20;0.80;;;7.90;66.40;;;;;;5074005;28;20610;-68
2024/02/23 07:24:26;;;;;;;3.10;1.02;;;7.90;66.10;;;;;;5074009;28;20277;-68
2024/02/23 07:26:53;;;;;;;2.17;1.30;;;7.90;66.20;;;;;;5073975;28;20612;-68
2024/02/23 07:29:21;;;;;;;2.63;0.90;;;7.90;66.20;;;;;;5073867;28;20191;-68
2024/02/23 07:31:48;;;;;;;3.45;1.05;;;7.90;65.30;;;;;;5073611;28;20277;-68
2024/02/23 07:34:15;;;;;;;3.95;1.20;;;7.80;65.70;;;;;;5073708;28;20194;-68
2024/02/23 07:36:43;;;;;;;3.03;1.00;;;7.80;65.90;;;;;;5073847;28;20591;-68
2024/02/23 07:39:11;;;;;;;4.10;1.20;;;7.80;66.50;;;;;;5073443;28;20727;-68
2024/02/23 07:41:38;;;;;;;2.25;0.95;;;7.80;66.60;;;;;;5073480;28;20218;-68
2024/02/23 07:44:05;;;;;;;3.00;1.20;;;7.60;66.50;;;;;;5073835;28;20292;-68
2024/02/23 07:46:33;;;;;;;2.75;1.00;;;7.50;67.30;;;;;;5073767;28;20194;-68
2024/02/23 07:49:00;;;;;;;2.33;0.82;;;7.40;68.30;;;;;;5073697;28;20214;-68
2024/02/23 07:51:27;;;;;;;2.78;1.25;;;7.50;68.40;;;;;;5073345;28;20285;-68
2024/02/23 07:53:54;;;;;;;3.05;1.05;;;7.50;67.90;;;;;;5073578;28;20230;-68
2024/02/23 07:56:21;;;;;;;3.80;1.17;;;7.50;68.00;;;;;;5073588;28;20195;-68
2024/02/23 07:58:48;;;;;;;1.80;0.70;;;7.40;68.50;;;;;;5073595;28;20535;-68
2024/02/23 08:01:15;;;;;;;2.58;1.20;;;7.50;68.00;;;;;;5073393;28;20225;-68
2024/02/23 08:03:44;;;;;;;3.28;0.90;;;7.50;68.50;;;;;;5073057;28;20260;-68
2024/02/23 08:06:12;;;;;;;2.45;0.70;;;7.40;69.10;;;;;;5073226;28;20618;-68
2024/02/23 08:08:39;;;;;;;3.67;1.40;;;7.30;69.10;;;;;;5073586;28;20591;-68
2024/02/23 08:11:06;;;;;;;1.92;0.77;;;7.20;70.00;;;;;;5073589;28;20277;-68
2024/02/23 08:13:33;;;;;;;1.90;0.80;;;7.30;69.60;;;;;;5072991;28;20292;-68
2024/02/23 08:16:00;;;;;;;4.13;1.35;;;7.30;69.40;;;;;;5073304;28;20607;-68
2024/02/23 08:18:27;;;;;;;3.80;1.08;;;7.40;68.50;;;;;;5073036;28;20247;-68
2024/02/23 08:20:55;;;;;;;2.25;0.90;;;7.30;67.90;;;;;;5073584;28;20216;-68
2024/02/23 08:23:22;;;;;;;1.70;0.70;;;7.30;68.80;;;;;;5072920;28;20309;-68
2024/02/23 08:25:50;;;;;;;2.50;1.02;;;7.40;68.70;;;;;;5073237;28;20194;-68
2024/02/23 08:28:17;;;;;;;1.95;0.82;;;7.40;68.90;;;;;;5072911;28;20190;-68
2024/02/23 08:30:44;;;;;;;3.03;0.82;;;7.40;66.00;;;;;;5073155;28;20282;-68
2024/02/23 08:33:11;;;;;;;1.90;0.80;;;7.40;66.60;;;;;;5073106;28;20613;-68
2024/02/23 08:35:38;;;;;;;3.20;0.82;;;7.40;66.60;;;;;;5072893;28;20225;-68
2024/02/23 08:38:07;;;;;;;2.60;1.00;;;7.40;66.30;;;;;;5073217;28;20611;-68
2024/02/23 08:40:33;;;;;;;2.45;0.90;;;7.40;66.00;;;;;;5073084;28;20204;-68
2024/02/23 08:43:00;;;;;;;2.45;0.85;;;7.40;64.70;;;;;;5072961;28;20280;-68
2024/02/23 08:45:28;;;;;;;4.25;1.98;;;7.30;64.90;;;;;;5073075;28;20194;-68
2024/02/23 08:47:54;;;;;;;3.42;1.98;;;7.30;65.40;;;;;;5075705;28;20193;-68
2024/02/23 08:50:21;;;;;;;2.17;1.27;;;7.20;65.60;;;;;;5076721;28;20194;-68
2024/02/23 08:52:49;;;;;;;1.90;0.90;;;7.20;66.00;;;;;;5076642;28;20683;-68
2024/02/23 08:55:17;;;;;;;2.03;0.85;;;7.20;65.40;;;;;;5076609;28;20194;-69
2024/02/23 08:57:44;;;;;;;2.75;1.00;;;7.30;66.20;;;;;;5076835;28;20190;-68
2024/02/23 09:00:12;;;;;;;2.35;1.70;;;7.30;65.90;;;;;;5076503;28;20692;-68
2024/02/23 09:02:41;;;;;;;2.40;1.77;;;7.40;64.90;;;;;;5076765;28;20612;-68
2024/02/23 09:05:09;;;;;;;2.00;1.25;;;7.50;63.90;;;;;;5076381;28;20276;-69
2024/02/23 09:07:36;;;;;;;1.95;0.90;;;7.50;63.30;;;;;;5076400;28;20277;-68
2024/02/23 09:10:04;;;;;;;1.75;0.68;;;7.50;62.30;;;;;;5076336;28;20194;-68
2024/02/23 09:12:33;;;;;;;1.75;0.60;;;7.50;61.90;;;;;;5076667;28;20193;-69
2024/02/23 09:15:00;;;;;;;1.92;0.93;;;7.40;61.80;;;;;;5076513;28;20222;-69
2024/02/23 09:17:26;;;;;;;3.17;0.88;;;7.50;60.30;;;;;;5076490;28;20605;-69
2024/02/23 09:19:53;;;;;;;1.90;0.70;;;7.40;61.30;;;;;;5076151;28;20272;-69
2024/02/23 09:22:20;;;;;;;1.70;0.68;;;7.40;61.00;;;;;;5076626;28;20221;-69
2024/02/23 09:24:47;;;;;;;1.80;0.60;;;7.50;59.60;;;;;;5076629;28;20281;-69
2024/02/23 09:27:14;;;;;;;1.95;0.80;;;7.50;59.00;;;;;;5076464;28;20542;-69
2024/02/23 09:29:43;;;;;;;2.50;1.13;;;7.50;58.80;;;;;;5075962;28;20234;-68
2024/02/23 09:32:10;;;;;;;1.83;0.60;;;7.50;58.30;;;;;;5075898;28;20195;-68
2024/02/23 09:34:37;;;;;;;1.80;0.70;;;7.60;58.20;;;;;;5076111;28;20650;-68
2024/02/23 09:37:04;;;;;;;2.00;0.70;;;7.60;57.80;;;;;;5076439;28;20190;-69
2024/02/23 09:39:31;;;;;;;3.22;1.15;;;7.60;57.30;;;;;;5076244;28;20203;-68
2024/02/23 09:41:58;;;;;;;2.65;1.52;;;7.60;57.30;;;;;;5075728;28;20272;-69
2024/02/23 09:44:32;;;;;;;3.95;1.80;;;7.60;58.10;;;;;;5075912;28;20577;-69
2024/02/23 09:47:07;;;;;;;2.10;1.10;;;7.70;58.40;;;;;;5075746;28;20212;-69
2024/02/23 09:49:36;;;;;;;2.30;1.10;;;7.70;58.30;;;;;;5075882;28;20217;-69
2024/02/23 09:52:05;;;;;;;3.85;1.30;;;7.80;57.10;;;;;;5075809;28;20297;-69
2024/02/23 09:54:32;;;;;;;2.20;1.00;;;7.80;58.10;;;;;;5075819;28;20221;-68
2024/02/23 09:56:59;;;;;;;3.97;1.15;;;7.80;58.40;;;;;;5075787;28;20190;-68
2024/02/23 09:59:28;;;;;;;2.70;1.30;;;7.90;58.40;;;;;;5074372;28;20274;-68
2024/02/23 10:01:55;;;;;;;2.33;1.10;;;8.00;57.20;;;;;;5073659;28;20190;-68
2024/02/23 10:04:25;;;;;;;2.42;1.30;;;8.00;57.00;;;;;;5075471;28;20283;-68
2024/02/23 10:06:52;;;;;;;2.65;0.98;;;7.80;57.30;;;;;;5075643;28;20266;-68
2024/02/23 10:09:20;;;;;;;2.80;1.45;;;7.80;57.70;;;;;;5075324;28;20588;-68
2024/02/23 10:11:53;;;;;;;2.00;0.80;;;7.70;58.40;;;;;;5075111;28;20281;-68
2024/02/23 10:14:20;;;;;;;1.80;0.60;;;7.70;59.00;;;;;;5075458;28;20208;-68
2024/02/23 10:16:48;;;;;;;2.60;1.50;;;7.70;59.40;;;;;;5075172;28;20656;-68
2024/02/23 10:19:15;;;;;;;3.22;0.95;;;7.70;59.60;;;;;;5075471;28;20190;-68
2024/02/23 10:21:43;;;;;;;1.88;0.90;;;7.70;59.60;;;;;;5074889;28;20736;-68
2024/02/23 10:24:11;;;;;;;2.08;0.70;;;7.60;59.90;;;;;;5074523;28;20308;-68
2024/02/23 10:26:38;;;;;;;1.80;0.70;;;7.60;59.70;;;;;;5075231;28;20198;-68
2024/02/23 10:29:05;;;;;;;2.00;1.10;;;7.60;59.90;;;;;;5075192;28;20274;-68
2024/02/23 10:31:36;;;;;;;2.88;1.20;;;7.50;60.80;;;;;;5073845;28;20712;-69
2024/02/23 10:34:09;;;;;;;2.30;1.00;;;7.40;61.80;;;;;;5074910;28;20211;-68
2024/02/23 10:36:38;;;;;;;7.70;0.82;;;7.50;62.30;;;;;;5075127;28;20190;-68
2024/02/23 10:39:09;;;;;;;1.70;0.70;;;7.40;61.80;;;;;;5074950;28;20197;-68
2024/02/23 10:41:37;;;;;;;2.05;0.80;;;7.30;62.60;;;;;;5074717;28;20241;-68
2024/02/23 10:44:05;;;;;;;2.15;0.75;;;7.30;63.20;;;;;;5074564;28;20680;-68
2024/02/23 10:46:33;;;;;;;1.88;0.90;;;7.20;63.70;;;;;;5074438;28;20187;-68
2024/02/23 10:49:02;;;;;;;2.50;0.98;;;7.20;64.40;;;;;;5074737;28;20190;-68
2024/02/23 10:51:29;;;;;;;1.90;0.90;;;7.30;64.80;;;;;;5074767;28;20229;-68
2024/02/23 10:53:58;;;;;;;5.25;1.52;;;7.30;64.60;;;;;;5074408;28;20234;-68
2024/02/23 10:56:28;;;;;;;3.05;1.60;;;7.30;64.80;;;;;;5074313;28;20233;-68
2024/02/23 10:58:55;;;;;;;4.05;0.90;;;7.40;63.90;;;;;;5074641;28;20197;-68
2024/02/23 11:01:23;;;;;;;2.70;0.90;;;7.40;63.50;;;;;;5074200;28;20609;-68
2024/02/23 11:03:50;;;;;;;4.47;0.85;;;7.40;64.10;;;;;;5074368;28;20210;-68
2024/02/23 11:06:20;;;;;;;1.80;0.75;;;7.30;64.80;;;;;;5074361;28;20286;-68
2024/02/23 11:08:48;;;;;;;2.10;1.23;;;7.30;65.30;;;;;;5074477;28;20185;-68
2024/02/23 11:11:17;;;;;;;5.30;1.08;;;7.30;64.90;;;;;;5074039;28;20190;-68
2024/02/23 11:13:46;;;;;;;1.80;0.70;;;7.20;65.00;;;;;;5073973;28;20197;-69
2024/02/23 11:16:23;;;;;;;3.30;0.85;;;7.10;65.40;;;;;;5074229;28;20297;-69
2024/02/23 11:18:50;;;;;;;2.80;0.75;;;7.10;65.60;;;;;;5074171;28;20178;-68
2024/02/23 11:21:16;;;;;;;1.70;0.70;;;7.20;64.30;;;;;;5073890;28;20192;-69
2024/02/23 11:23:45;;;;;;;2.47;0.90;;;7.10;64.90;;;;;;5073721;28;20314;-69
2024/02/23 11:26:13;;;;;;;2.20;0.80;;;6.90;65.70;;;;;;5073696;28;20195;-68
2024/02/23 11:28:44;;;;;;;2.17;0.90;;;6.90;65.20;;;;;;5073687;28;20226;-69
2024/02/23 11:31:17;;;;;;;2.00;0.70;;;6.90;66.50;;;;;;5073912;28;20190;-69
2024/02/23 11:33:51;;;;;;;2.50;0.80;;;6.90;66.40;;;;;;5073816;28;20244;-69
2024/02/23 11:36:25;;;;;;;2.10;0.90;;;7.00;66.20;;;;;;5073593;28;20641;-69
2024/02/23 11:38:57;;;;;;;1.90;0.70;;;6.90;66.60;;;;;;5073478;28;20185;-69
2024/02/23 11:41:25;;;;;;;2.03;0.98;;;6.90;66.90;;;;;;5073720;28;20629;-69
2024/02/23 11:43:52;;;;;;;1.90;0.75;;;7.00;66.40;;;;;;5073689;28;20218;-69
2024/02/23 11:46:21;;;;;;;1.67;0.60;;;7.00;66.80;;;;;;5073166;28;20702;-69
2024/02/23 11:48:53;;;;;;;1.98;1.00;;;7.00;66.70;;;;;;5073258;28;20186;-68
2024/02/23 11:51:20;;;;;;;1.90;0.80;;;6.90;67.20;;;;;;5073453;28;20585;-68
2024/02/23 11:53:47;;;;;;;2.00;0.80;;;6.90;67.40;;;;;;5073690;28;20526;-68
2024/02/23 11:56:15;;;;;;;2.33;0.95;;;6.90;68.50;;;;;;5073135;28;20294;-68
2024/02/23 11:58:42;;;;;;;1.95;0.90;;;6.80;67.20;;;;;;5073200;28;20721;-68
2024/02/23 12:01:09;;;;;;;2.30;1.17;;;6.80;68.50;;;;;;5073176;28;20280;-68
2024/02/23 12:03:39;;;;;;;1.80;0.70;;;6.90;68.10;;;;;;5073058;28;20857;-68
2024/02/23 12:06:07;;;;;;;3.45;1.00;;;6.80;67.10;;;;;;5073774;28;20287;-68
2024/02/23 12:08:37;;;;;;;2.30;0.93;;;6.80;67.90;;;;;;5072683;28;20190;-69
2024/02/23 12:11:07;;;;;;;2.78;1.45;;;6.90;68.10;;;;;;5072899;28;20280;-69
2024/02/23 12:13:34;;;;;;;1.70;0.70;;;7.00;67.90;;;;;;5054112;28;20194;-69
2024/02/23 12:16:03;;;;;;;2.28;0.93;;;7.00;66.80;;;;;;5072859;28;20559;-69
2024/02/23 12:18:30;;;;;;;3.22;1.00;;;7.00;65.40;;;;;;5073068;28;20191;-69
2024/02/23 12:21:02;;;;;;;2.00;0.82;;;7.10;66.10;;;;;;5072187;28;20277;-69
2024/02/23 12:23:39;;;;;;;2.67;0.98;;;7.10;65.50;;;;;;5072679;28;20212;-69
2024/02/23 12:26:06;;;;;;;3.00;1.02;;;7.10;66.30;;;;;;5073220;28;20235;-69
2024/02/23 12:28:33;;;;;;;2.00;0.70;;;7.10;66.20;;;;;;5072839;28;21324;-68
2024/02/23 12:31:03;;;;;;;2.92;1.00;;;7.10;65.80;;;;;;5072654;28;20218;-68
2024/02/23 12:33:30;;;;;;;2.28;0.93;;;7.10;64.50;;;;;;5073139;28;20247;-68
2024/02/23 12:35:58;;;;;;;2.15;0.75;;;7.10;63.40;;;;;;5072875;28;20232;-69
2024/02/23 12:38:27;;;;;;;2.67;0.90;;;7.10;61.90;;;;;;5072871;28;20652;-69
2024/02/23 12:40:54;;;;;;;1.80;0.80;;;7.00;60.30;;;;;;5070155;28;20206;-69
2024/02/23 12:43:24;;;;;;;2.45;0.90;;;7.00;59.30;;;;;;5071615;28;20576;-69
2024/02/23 12:45:51;;;;;;;2.97;0.88;;;6.90;58.30;;;;;;5071683;28;20277;-69
2024/02/23 12:48:18;;;;;;;1.80;0.70;;;6.90;58.90;;;;;;5071671;28;20194;-69
2024/02/23 12:50:45;;;;;;;1.90;0.73;;;6.90;59.30;;;;;;5072615;28;20243;-69
2024/02/23 12:53:34;;;;;;;3.05;0.88;;;6.90;58.80;;;;;;5072464;28;20232;-69
2024/02/23 12:56:02;;;;;;;2.20;0.88;;;7.00;57.60;;;;;;5072437;28;20540;-69
2024/02/23 12:58:29;;;;;;;2.38;0.98;;;7.00;57.70;;;;;;5071719;28;20190;-69
2024/02/23 13:00:57;;;;;;;1.80;0.80;;;7.10;57.70;;;;;;5069604;28;20191;-69